Arlington, Wyoming
Current Conditions -  °F | °C
As of 1:55 AM on Thursday 23 Oct 2014 (Local Time) from KEHY Reporting Station
Clear Clear  
Wind Chill: 37°   Ceiling: Unl
Heat Index: 45°   Visibility: 10mi
Dew Point: 32°   Wind: 16mph
Humidity: 61%   Direction: 250°WSW
Pressure: 30.18"   Gusts: NA
Location:  41.6691°N, 106.011°W
Report Text: KEHY 230755Z AUTO 25014KT 10SM CLR 07/00 A3018 RMK AO2
Loading
Personal Weather Stations






























Interactive Weather Map New forecast layout! Learn more

10-Day Weather Forecast

Advertisements
Track Severe Weather on mobile